EW1458 Weather Reports


Display with metric or nautical units.
time (UTC)temp
F
wind
direction
speed
MPH
gust
MPH
rain 1hr
in
rain 24hr
in
rain mn
in
humidity
%
barometer
mb
20200706173219 63 0 4.0 7.0 0.00 0.46 0.46 80 1019.1
20200706172716 63 112 4.0 7.0 0.00 0.46 0.46 80 1019.1
20200706172200 64 90 3.0 8.0 0.00 0.46 0.46 79 1019.0
20200706171647 63 112 5.0 8.0 0.00 0.46 0.46 80 1019.0
20200706171138 64 112 5.0 8.0 0.00 0.46 0.46 81 1018.9
20200706170634 65 135 6.0 7.0 0.00 0.46 0.46 77 1018.9
20200706170125 65 135 1.0 4.0 0.00 0.46 0.46 73 1018.9
20200706165610 67 270 1.0 5.0 0.00 0.46 0.46 73 1019.0
20200706165103 66 315 3.0 5.0 0.00 0.46 0.46 73 1019.0
20200706164534 65 338 2.0 4.0 0.00 0.46 0.46 75 1018.9
20200706164030 67 225 2.0 4.0 0.00 0.46 0.46 74 1018.9
20200706163519 65 112 2.0 5.0 0.00 0.46 0.46 74 1018.9
20200706162949 65 112 4.0 6.0 0.00 0.46 0.46 77 1018.9
20200706162440 65 112 4.0 6.0 0.00 0.46 0.46 77 1019.0
20200706161937 64 22 2.0 5.0 0.00 0.46 0.46 76 1019.0
20200706161432 65 202 2.0 6.0 0.00 0.46 0.46 77 1019.0
20200706160925 66 112 3.0 6.0 0.00 0.46 0.46 80 1019.0
20200706160414 62 90 2.0 5.0 0.00 0.46 0.46 84 1019.0
20200706155905 62 180 2.0 5.0 0.00 0.46 0.46 85 1019.1
20200706155352 63 135 3.0 7.0 0.00 0.46 0.46 85 1019.1
20200706154849 62 90 4.0 7.0 0.00 0.46 0.46 85 1019.1
20200706154337 61 135 4.0 5.0 0.00 0.46 0.46 88 1019.2
20200706153821 60 112 3.0 5.0 0.00 0.46 0.46 89 1019.2
20200706153314 60 112 3.0 6.0 0.00 0.46 0.46 90 1019.2
20200706152810 60 90 4.0 6.0 0.00 0.46 0.46 91 1019.2
20200706152300 59 112 2.0 4.0 0.00 0.46 0.46 93 1019.5
20200706151729 59 112 2.0 3.0 0.00 0.46 0.46 95 1019.5
20200706151159 58 135 0.0 3.0 0.00 0.46 0.46 93 1019.4
20200706150645 59 112 1.0 3.0 0.00 0.46 0.46 96 1019.4
20200706150137 58 90 1.0 3.0 0.00 0.46 0.46 95 1019.4
20200706145638 58 90 0.0 3.0 0.00 0.46 0.46 97 1019.5
20200706145136 57 158 2.0 5.0 0.00 0.46 0.46 97 1019.5
20200706144634 57 90 2.0 5.0 0.00 0.46 0.46 96 1019.3
20200706144126 57 112 1.0 5.0 0.00 0.46 0.46 97 1019.3
20200706143612 56 112 3.0 5.0 0.00 0.46 0.46 96 1019.4
20200706143059 57 112 3.0 5.0 0.00 0.46 0.46 98 1019.4
20200706142551 56 112 3.0 5.0 0.00 0.46 0.46 98 1019.4
20200706142047 56 90 3.0 5.0 0.00 0.46 0.46 98 1019.4
20200706141538 56 112 3.0 5.0 0.00 0.46 0.46 96 1019.4
20200706141023 57 90 3.0 5.0 0.00 0.46 0.46 93 1019.4
20200706140506 57 112 4.0 5.0 0.00 0.46 0.46 93 1019.4
20200706135945 58 112 3.0 5.0 0.00 0.46 0.46 93 1019.3
20200706135446 57 90 1.0 4.0 0.01 0.46 0.46 93 1019.3
20200706134928 57 112 3.0 5.0 0.01 0.46 0.46 93 1019.3
20200706134415 57 68 3.0 5.0 0.02 0.46 0.46 93 1019.3
20200706133906 57 135 2.0 5.0 0.02 0.46 0.46 93 1019.3
20200706133402 57 112 2.0 5.0 0.02 0.46 0.46 94 1019.3
20200706132835 57 112 1.0 3.0 0.02 0.46 0.46 95 1019.3
20200706132318 57 112 1.0 3.0 0.02 0.46 0.46 96 1019.1
20200706131803 57 112 2.0 5.0 0.03 0.46 0.46 96 1019.1
20200706131259 57 22 4.0 5.0 0.03 0.46 0.46 95 1019.1
20200706130742 57 68 1.0 5.0 0.04 0.46 0.46 95 1019.0
20200706130226 57 112 2.0 3.0 0.04 0.46 0.46 95 1019.0
20200706125723 57 68 2.0 3.0 0.05 0.46 0.46 95 1019.0
20200706125217 57 68 0.0 0.0 0.06 0.45 0.45 95 1019.0
20200706124646 57 112 0.0 2.0 0.07 0.44 0.44 94 1019.1
20200706124115 57 68 1.0 3.0 0.09 0.44 0.44 94 1019.1
20200706123612 57 90 2.0 3.0 0.10 0.44 0.44 94 1019.1
20200706123101 57 45 1.0 3.0 0.11 0.44 0.44 95 1019.1
20200706122533 57 45 1.0 3.0 0.13 0.44 0.44 95 1019.1
20200706122015 57 112 2.0 3.0 0.14 0.43 0.43 97 1018.9
20200706121509 57 90 2.0 4.0 0.14 0.43 0.43 97 1018.9
20200706121006 57 90 2.0 4.0 0.13 0.42 0.42 97 1018.8
20200706120454 57 112 3.0 4.0 0.14 0.42 0.42 97 1018.8
20200706115931 57 112 2.0 3.0 0.13 0.41 0.41 97 1018.7
20200706115419 57 112 2.0 3.0 0.12 0.40 0.40 97 1018.7
20200706114912 57 112 2.0 3.0 0.09 0.37 0.37 97 1018.7
20200706114356 57 112 2.0 3.0 0.09 0.37 0.37 97 1018.8
20200706113846 57 90 1.0 3.0 0.07 0.35 0.35 97 1018.8
20200706113347 57 45 2.0 3.0 0.05 0.33 0.33 98 1018.8
20200706112842 58 90 1.0 3.0 0.03 0.31 0.31 98 1018.8
20200706112309 58 270 0.0 1.0 0.04 0.31 0.31 98 1018.7
20200706111804 58 315 0.0 0.0 0.03 0.29 0.29 98 1018.7
20200706111253 58 112 0.0 0.0 0.06 0.29 0.29 97 1018.7
20200706110738 58 68 0.0 0.0 0.06 0.28 0.28 96 1018.7
20200706110233 58 90 0.0 0.0 0.14 0.28 0.28 96 1018.7
20200706105727 58 90 0.0 0.0 0.17 0.28 0.28 96 1018.7
20200706105213 58 90 0.0 2.0 0.18 0.28 0.28 96 1018.7
20200706104659 58 68 1.0 3.0 0.18 0.28 0.28 97 1018.5
20200706104153 57 90 1.0 3.0 0.19 0.28 0.28 98 1018.5
20200706103621 57 292 2.0 3.0 0.20 0.28 0.28 98 1018.2
20200706103116 57 338 2.0 3.0 0.22 0.28 0.28 98 1018.2
20200706102603 57 0 2.0 3.0 0.21 0.27 0.27 98 1018.2
20200706102049 57 22 0.0 2.0 0.21 0.27 0.27 98 1018.0
20200706101541 57 0 0.0 0.0 0.19 0.25 0.25 98 1018.0
20200706101037 57 45 0.0 0.0 0.17 0.23 0.23 98 1018.0
20200706100528 57 0 0.0 0.0 0.10 0.15 0.15 98 1018.0
20200706095937 57 270 0.0 0.0 0.06 0.11 0.11 97 1017.9
20200706095351 57 0 0.0 0.0 0.06 0.11 0.11 98 1017.9
20200706094840 58 338 0.0 0.0 0.06 0.10 0.10 96 1017.9
20200706094340 58 0 0.0 2.0 0.06 0.09 0.09 96 1017.8
20200706093824 58 270 1.0 3.0 0.06 0.08 0.08 96 1017.8
20200706093301 58 338 1.0 3.0 0.05 0.06 0.06 96 1017.7
20200706092741 57 0 0.0 3.0 0.05 0.06 0.06 97 1017.7
20200706092224 57 0 2.0 5.0 0.06 0.06 0.06 98 1017.7
20200706091713 57 315 4.0 5.0 0.06 0.06 0.06 98 1017.7
20200706091157 57 45 0.0 2.0 0.06 0.06 0.06 96 1017.4
20200706090651 57 292 0.0 1.0 0.06 0.06 0.06 95 1017.4
20200706090146 57 68 0.0 2.0 0.05 0.05 0.05 95 1017.4
20200706085622 57 90 1.0 2.0 0.05 0.05 0.05 94 1017.1
20200706085119 58 90 1.0 3.0 0.05 0.05 0.05 94 1017.1
20200706084610 58 90 1.0 3.0 0.03 0.03 0.03 93 1017.0
20200706084100 58 90 1.0 2.0 0.03 0.03 0.03 93 1017.0
20200706083600 58 112 0.0 0.0 0.02 0.02 0.02 93 1016.9
20200706083052 58 90 0.0 0.0 0.01 0.01 0.01 93 1016.9
20200706082547 58 112 0.0 0.0 0.00 0.00 0.00 93 1016.9
20200706082036 58 90 0.0 0.0 0.00 0.00 0.00 93 1016.8
20200706081519 58 248 0.0 0.0 0.00 0.00 0.00 93 1016.8
20200706081012 58 0 0.0 0.0 0.00 0.00 0.00 94 1016.7
20200706080510 58 0 0.0 0.0 0.00 0.00 0.00 93 1016.7
20200706080002 58 112 0.0 0.0 0.00 0.00 0.00 94 1016.7
20200706075440 58 90 0.0 2.0 0.00 0.00 0.00 94 1016.7
20200706074932 58 158 1.0 3.0 0.00 0.00 0.00 94 1016.7
20200706074427 58 112 1.0 3.0 0.00 0.00 0.00 93 1016.7
20200706073915 58 180 2.0 3.0 0.00 0.00 0.00 93 1016.7
20200706073401 58 112 2.0 3.0 0.00 0.00 0.00 93 1016.6
20200706072854 58 135 3.0 3.0 0.00 0.00 0.00 93 1016.6
20200706072350 57 112 2.0 4.0 0.00 0.00 0.00 93 1016.4
20200706071838 57 135 2.0 4.0 0.00 0.00 0.00 94 1016.4
20200706071307 57 112 1.0 3.0 0.00 0.00 0.00 93 1016.4
20200706070738 57 112 2.0 3.0 0.00 0.00 0.00 93 1016.6
20200706070225 57 112 1.0 2.0 0.00 0.00 0.00 93 1016.6
20200706065720 57 0 0.0 2.0 0.00 0.00 0.00 94 1016.5
20200706065200 57 112 0.0 2.0 0.00 0.00 0.00 93 1016.5
20200706064651 57 90 1.0 3.0 0.00 0.00 0.00 93 1016.6
20200706064145 57 90 2.0 3.0 0.00 0.00 0.00 93 1016.6
20200706063641 57 112 1.0 3.0 0.00 0.00 0.00 93 1016.6
20200706063129 57 68 2.0 5.0 0.00 0.00 0.00 93 1016.6
20200706062612 57 112 3.0 5.0 0.00 0.00 0.00 93 1016.6
20200706062057 57 68 1.0 3.0 0.00 0.00 0.00 93 1016.7
20200706061550 57 0 1.0 3.0 0.00 0.00 0.00 92 1016.7
20200706061051 58 90 2.0 3.0 0.00 0.00 0.00 91 1016.8
20200706060533 58 90 2.0 3.0 0.00 0.00 0.00 91 1016.8
20200706060040 58 68 0.0 3.0 0.00 0.00 0.00 91 1016.8
20200706055526 57 45 1.0 3.0 0.00 0.00 0.00 91 1016.8
20200706055024 58 90 0.0 3.0 0.00 0.00 0.00 91 1016.8
20200706054518 58 68 2.0 5.0 0.00 0.00 0.00 91 1016.9
20200706054013 58 90 3.0 5.0 0.00 0.00 0.00 91 1016.9
20200706053458 57 45 1.0 3.0 0.00 0.00 0.00 91 1017.0
20200706052929 58 90 1.0 4.0 0.00 0.00 0.00 91 1017.0
20200706052410 58 45 2.0 4.0 0.00 0.00 0.00 90 1017.1
20200706051842 58 68 0.0 3.0 0.00 0.00 0.00 90 1017.1
20200706051338 57 0 2.0 4.0 0.00 0.00 0.00 91 1017.1
20200706050833 58 90 2.0 4.0 0.00 0.00 0.00 90 1017.2
20200706050325 58 112 1.0 3.0 0.00 0.00 0.00 90 1017.2
20200706045758 58 90 1.0 2.0 0.00 0.00 0.00 90 1017.3
20200706045227 58 112 1.0 2.0 0.00 0.00 0.00 90 1017.3
20200706044728 58 90 1.0 2.0 0.00 0.00 0.00 90 1017.7
20200706044203 58 45 0.0 0.0 0.00 0.00 0.00 90 1017.7
20200706043705 58 90 0.0 0.0 0.00 0.00 0.00 89 1017.7
20200706043133 58 90 0.0 0.0 0.00 0.00 0.00 88 1017.7
20200706042618 59 90 0.0 0.0 0.00 0.00 0.00 87 1017.7
20200706042048 58 90 0.0 1.0 0.00 0.00 0.00 88 1017.9
20200706041531 58 45 0.0 3.0 0.00 0.00 0.00 88 1017.9
20200706041027 58 112 1.0 3.0 0.00 0.00 0.00 88 1018.0
20200706040456 58 90 1.0 3.0 0.00 0.00 0.00 88 1018.0
20200706035953 58 68 1.0 3.0 0.00 0.00 0.00 87 1018.1
20200706035440 58 112 0.0 0.0 0.00 0.00 0.00 87 1018.1
20200706034926 58 90 0.0 0.0 0.00 0.00 0.00 87 1018.1
20200706034418 58 90 0.0 0.0 0.00 0.00 0.00 87 1018.0
20200706033850 58 90 0.0 3.0 0.00 0.00 0.00 88 1018.0
20200706033343 58 90 1.0 3.0 0.00 0.00 0.00 88 1017.9
20200706032835 58 90 0.0 2.0 0.00 0.00 0.00 88 1017.9
20200706032306 58 112 1.0 3.0 0.00 0.00 0.00 88 1018.0
20200706031747 58 90 1.0 3.0 0.00 0.00 0.00 88 1018.0
20200706031240 58 90 1.0 3.0 0.00 0.00 0.00 88 1017.9
20200706030737 59 68 0.0 0.0 0.00 0.00 0.00 88 1017.9
20200706030226 59 90 0.0 0.0 0.00 0.00 0.00 88 1017.9
20200706025656 59 112 0.0 0.0 0.00 0.00 0.00 88 1017.8
20200706025142 59 90 0.0 0.0 0.00 0.00 0.00 88 1017.8
20200706024557 59 90 0.0 0.0 0.00 0.00 0.00 88 1017.7
20200706024039 59 112 0.0 0.0 0.00 0.00 0.00 88 1017.7
20200706023534 59 90 0.0 0.0 0.00 0.00 0.00 89 1017.7
20200706023031 58 90 0.0 0.0 0.00 0.00 0.00 89 1017.7
20200706022436 58 90 0.0 0.0 0.00 0.00 0.00 89 1017.6
20200706021931 58 135 0.0 0.0 0.00 0.00 0.00 90 1017.6
20200706021436 58 0 0.0 0.0 0.00 0.00 0.00 90 1017.6
20200706020905 58 90 0.0 0.0 0.00 0.00 0.00 88 1017.4
20200706020401 58 135 0.0 0.0 0.00 0.00 0.00 88 1017.4
20200706015828 58 90 0.0 0.0 0.00 0.00 0.00 88 1017.4
20200706015300 58 90 0.0 0.0 0.00 0.00 0.00 88 1017.4
20200706014755 58 68 0.0 3.0 0.00 0.00 0.00 88 1017.4
20200706014249 57 0 3.0 3.0 0.00 0.00 0.00 90 1017.4
20200706013728 58 0 0.0 1.0 0.00 0.00 0.00 88 1017.4
20200706013223 58 22 0.0 2.0 0.00 0.00 0.00 87 1017.4
20200706012719 58 22 1.0 2.0 0.00 0.00 0.00 89 1017.4
20200706012215 58 45 1.0 2.0 0.00 0.00 0.00 88 1017.3
20200706011640 59 90 0.0 2.0 0.00 0.00 0.00 88 1017.3
20200706011107 58 0 2.0 3.0 0.00 0.00 0.00 89 1017.2
20200706010551 58 315 1.0 3.0 0.00 0.00 0.00 89 1017.2
20200706010046 58 270 2.0 4.0 0.00 0.00 0.00 89 1017.2
20200706005541 58 315 3.0 4.0 0.00 0.00 0.00 89 1017.0
20200706005034 58 315 0.0 3.0 0.00 0.00 0.00 88 1017.0
20200706004518 58 270 2.0 3.0 0.00 0.00 0.00 87 1016.9
20200706004011 59 90 1.0 3.0 0.00 0.00 0.00 87 1016.9
20200706003508 58 292 2.0 3.0 0.00 0.00 0.00 88 1016.8
20200706002934 58 270 2.0 3.0 0.00 0.00 0.00 87 1016.8
20200706002412 59 90 1.0 5.0 0.00 0.00 0.00 87 1016.8
20200706001909 58 180 2.0 5.0 0.00 0.00 0.00 87 1016.8
20200706001402 59 90 1.0 4.0 0.00 0.00 0.00 85 1016.8
20200706000858 59 270 2.0 5.0 0.00 0.00 0.00 86 1016.9
20200706000346 59 158 2.0 5.0 0.00 0.00 0.00 85 1016.9
20200705235832 59 270 3.0 5.0 0.00 0.00 0.00 87 1016.7
20200705235324 59 270 3.0 5.0 0.00 0.00 0.00 86 1016.7
20200705234819 59 202 2.0 5.0 0.00 0.00 0.00 86 1016.4
20200705234308 59 180 4.0 5.0 0.00 0.00 0.00 86 1016.4
20200705233736 60 180 2.0 5.0 0.00 0.00 0.00 85 1016.4
20200705233221 60 112 1.0 5.0 0.00 0.00 0.00 84 1016.4
20200705232713 61 270 1.0 6.0 0.00 0.00 0.00 82 1016.4
20200705232213 61 180 2.0 6.0 0.00 0.00 0.00 82 1016.4
20200705231712 61 338 2.0 7.0 0.00 0.00 0.00 82 1016.4
20200705231208 60 202 3.0 7.0 0.00 0.00 0.00 84 1016.3
20200705230706 60 270 3.0 5.0 0.00 0.00 0.00 84 1016.3
20200705230130 60 45 3.0 5.0 0.00 0.00 0.00 83 1016.3
20200705225619 61 270 2.0 5.0 0.00 0.00 0.00 82 1016.1
20200705225102 62 248 3.0 5.0 0.00 0.00 0.00 81 1016.1
20200705224555 62 158 1.0 4.0 0.00 0.00 0.00 80 1016.2
20200705224050 61 0 3.0 4.0 0.00 0.00 0.00 81 1016.2
20200705223525 61 315 2.0 4.0 0.00 0.00 0.00 81 1016.0
20200705223024 61 270 3.0 5.0 0.00 0.00 0.00 81 1016.0
20200705222517 62 292 4.0 5.0 0.00 0.00 0.00 79 1016.0
20200705222015 64 270 1.0 5.0 0.00 0.00 0.00 74 1015.8
20200705221505 64 270 2.0 7.0 0.00 0.00 0.00 75 1015.8
20200705220933 64 338 4.0 9.0 0.00 0.00 0.00 74 1015.7
20200705220418 64 292 7.0 10.0 0.00 0.00 0.00 73 1015.7
20200705215906 69 315 6.0 10.0 0.00 0.00 0.00 65 1015.3
20200705215342 72 112 2.0 4.0 0.00 0.00 0.00 61 1015.3
20200705214811 73 90 1.0 3.0 0.00 0.00 0.00 61 1015.3
20200705214309 73 112 1.0 3.0 0.00 0.00 0.00 60 1015.3
20200705213756 72 112 1.0 3.0 0.00 0.00 0.00 61 1015.3
20200705213244 71 225 2.0 7.0 0.00 0.00 0.00 61 1015.3
20200705212737 71 202 2.0 7.0 0.00 0.00 0.00 61 1015.3
20200705212209 71 158 3.0 5.0 0.00 0.00 0.00 60 1015.2
20200705211655 72 135 3.0 5.0 0.00 0.00 0.00 59 1015.2
20200705211154 72 180 2.0 7.0 0.00 0.00 0.00 60 1015.2
20200705210638 72 90 4.0 7.0 0.00 0.00 0.00 59 1015.2
20200705210113 72 112 4.0 5.0 0.00 0.00 0.00 59 1015.2
20200705205604 72 180 3.0 8.0 0.00 0.00 0.00 58 1015.3
20200705205035 72 112 5.0 8.0 0.00 0.00 0.00 57 1015.3
20200705204534 72 202 5.0 7.0 0.00 0.00 0.00 56 1015.4
20200705204032 73 112 6.0 7.0 0.00 0.00 0.00 55 1015.4
20200705203525 73 158 4.0 9.0 0.00 0.00 0.00 55 1015.4
20200705203021 73 158 5.0 9.0 0.00 0.00 0.00 56 1015.4
20200705202509 74 158 4.0 8.0 0.00 0.00 0.00 57 1015.4
20200705201941 74 112 5.0 7.0 0.00 0.00 0.00 56 1015.5
20200705201412 73 112 4.0 6.0 0.00 0.00 0.00 57 1015.5
20200705200857 73 180 4.0 8.0 0.00 0.00 0.00 57 1015.3
20200705200350 73 135 5.0 8.0 0.00 0.00 0.00 58 1015.3
20200705195819 74 112 4.0 9.0 0.00 0.00 0.00 58 1015.2
20200705195317 74 180 6.0 9.0 0.00 0.00 0.00 57 1015.2
20200705194752 74 225 4.0 10.0 0.00 0.00 0.00 57 1015.3
20200705194237 75 248 5.0 10.0 0.00 0.00 0.00 57 1015.3
20200705193725 75 225 5.0 10.0 0.00 0.00 0.00 56 1015.3
20200705193217 75 158 6.0 8.0 0.00 0.00 0.00 56 1015.3
20200705192648 75 112 5.0 9.0 0.00 0.00 0.00 55 1015.3
20200705192119 76 135 6.0 9.0 0.00 0.00 0.00 53 1015.4
20200705191617 76 112 6.0 9.0 0.00 0.00 0.00 54 1015.4
20200705191105 77 112 3.0 7.0 0.00 0.00 0.00 53 1015.6
20200705190551 75 112 4.0 9.0 0.00 0.00 0.00 55 1015.6
20200705190047 75 90 5.0 9.0 0.00 0.00 0.00 55 1015.6
20200705185541 76 112 6.0 10.0 0.00 0.00 0.00 55 1015.6
20200705185032 76 90 5.0 10.0 0.00 0.00 0.00 59 1015.6
20200705184519 74 112 3.0 6.0 0.00 0.00 0.00 65 1015.5
20200705184003 72 248 5.0 7.0 0.00 0.00 0.00 68 1015.5
20200705183446 71 315 5.0 7.0 0.00 0.00 0.00 70 1015.6
20200705182916 70 315 6.0 9.0 0.00 0.00 0.00 71 1015.6
20200705182413 70 292 7.0 10.0 0.00 0.00 0.00 72 1015.6
20200705181857 69 270 7.0 10.0 0.00 0.00 0.00 72 1015.6
20200705181330 70 292 6.0 10.0 0.00 0.00 0.00 71 1015.6
20200705180815 0 292 6.0 10.0 0.00 0.00 0.00 1015.7
20200705180311 75 135 2.0 7.0 0.00 0.00 0.00 59 1015.7
20200705175810 76 135 4.0 7.0 0.00 0.00 0.00 60 1015.7
20200705175310 76 90 1.0 9.0 0.00 0.00 0.00 61 1015.7
20200705174805 75 112 4.0 9.0 0.00 0.00 0.00 61 1015.7
20200705174300 76 315 3.0 6.0 0.00 0.00 0.00 60 1015.7
20200705173748 74 338 3.0 6.0 0.00 0.00 0.00 66 1015.7